Time;durP1;ratioP1;P1;durP2;ratioP2;P2;SDS_P1;SDS_P2;PMS_P1;PMS_P2;Temp;Humidity;BMP_temperature;BMP_pressure;BME280_temperature;BME280_humidity;BME280_pressure;Samples;Min_cycle;Max_cycle;Signal;HPM_P1;HPM_P2
2022/01/20 00:03:35;;;;;;;7.30;0.60;;;4.40;99.90;;;;;;5094502;28;20063;-75
2022/01/20 00:27:51;;;;;;;6.15;0.63;;;4.30;99.90;;;;;;5075192;28;20492;-81
2022/01/20 00:35:31;;;;;;;7.72;0.50;;;4.40;99.90;;;;;;5075558;28;20119;-79
2022/01/20 00:37:56;;;;;;;6.53;0.50;;;4.40;99.90;;;;;;5056766;28;20442;-76
2022/01/20 00:40:23;;;;;;;11.68;0.70;;;4.50;99.90;;;;;;5074678;28;20036;-79
2022/01/20 00:42:50;;;;;;;12.85;0.65;;;4.50;99.90;;;;;;5074458;28;20041;-72
2022/01/20 00:45:15;;;;;;;15.95;0.70;;;4.40;99.90;;;;;;5075789;28;20492;-73
2022/01/20 00:47:42;;;;;;;13.55;0.43;;;4.50;99.90;;;;;;5074552;28;20063;-80
2022/01/20 00:50:09;;;;;;;13.80;0.68;;;4.50;99.90;;;;;;5044295;28;20032;-79
2022/01/20 00:52:36;;;;;;;6.00;0.47;;;4.50;99.90;;;;;;5075871;28;20055;-77
2022/01/20 00:55:03;;;;;;;15.85;0.77;;;4.50;99.90;;;;;;5057421;28;20052;-74
2022/01/20 00:57:29;;;;;;;6.57;0.70;;;4.50;99.90;;;;;;5074305;28;20085;-75
2022/01/20 00:59:55;;;;;;;7.43;0.73;;;4.60;99.90;;;;;;5074787;28;20040;-79
2022/01/20 01:02:21;;;;;;;4.90;0.70;;;4.60;99.90;;;;;;5074997;28;20082;-79
2022/01/20 01:04:47;;;;;;;7.78;0.40;;;4.60;99.90;;;;;;5073788;28;20097;-77
2022/01/20 01:07:57;;;;;;;8.30;0.65;;;4.70;99.90;;;;;;5075077;28;20055;-79
2022/01/20 01:09:58;;;;;;;11.77;0.50;;;4.80;99.90;;;;;;5059569;28;20881;-79
2022/01/20 01:12:39;;;;;;;11.73;0.47;;;4.90;99.90;;;;;;5073997;28;20047;-81
2022/01/20 01:15:11;;;;;;;7.47;0.70;;;4.90;99.90;;;;;;5057891;28;20032;-80
2022/01/20 01:20:23;;;;;;;4.35;0.45;;;4.90;99.90;;;;;;5074231;28;20048;-79
2022/01/20 01:22:48;;;;;;;4.93;0.20;;;4.80;99.90;;;;;;5074648;28;20044;-77
2022/01/20 01:25:15;;;;;;;6.07;0.10;;;4.70;99.90;;;;;;5073870;28;20112;-79
2022/01/20 01:27:43;;;;;;;2.78;0.10;;;4.60;99.90;;;;;;5057759;28;20040;-79
2022/01/20 01:30:41;;;;;;;4.53;0.20;;;4.50;99.90;;;;;;5074425;28;20035;-79
2022/01/20 01:33:07;;;;;;;2.05;0.10;;;4.40;99.90;;;;;;5061737;28;20089;-78
2022/01/20 01:35:38;;;;;;;5.05;0.10;;;4.30;99.90;;;;;;5049609;28;20541;-79
2022/01/20 01:40:29;;;;;;;4.03;0.10;;;4.20;99.90;;;;;;5073164;28;20479;-79
2022/01/20 01:42:56;;;;;;;6.40;0.40;;;4.10;99.90;;;;;;5057555;28;20148;-77
2022/01/20 01:45:41;;;;;;;5.28;0.20;;;4.10;99.90;;;;;;5073894;28;20051;-78
2022/01/20 01:48:07;;;;;;;4.30;0.20;;;4.10;99.90;;;;;;5073815;28;20193;-78
2022/01/20 01:50:33;;;;;;;3.30;0.10;;;4.10;99.90;;;;;;5056963;28;20047;-78
2022/01/20 01:53:02;;;;;;;7.35;0.22;;;4.10;99.90;;;;;;5074330;28;20056;-78
2022/01/20 01:55:28;;;;;;;5.43;0.22;;;4.00;99.90;;;;;;5087110;28;20045;-71
2022/01/20 01:57:54;;;;;;;4.85;0.10;;;4.00;99.90;;;;;;5061226;28;20131;-81
2022/01/20 02:00:20;;;;;;;3.88;0.30;;;4.00;99.90;;;;;;5072684;28;20387;-69
2022/01/20 02:02:46;;;;;;;5.13;0.43;;;4.00;99.90;;;;;;5073135;28;20048;-72
2022/01/20 02:05:15;;;;;;;5.28;0.30;;;4.00;99.90;;;;;;5073568;28;20044;-81
2022/01/20 02:18:47;;;;;;;8.13;0.30;;;4.40;99.90;;;;;;5085060;28;20059;-81
2022/01/20 02:21:12;;;;;;;3.17;0.30;;;4.40;99.90;;;;;;5072771;28;20059;-82
2022/01/20 02:23:38;;;;;;;5.18;0.20;;;4.40;99.90;;;;;;5091574;28;20436;-82
2022/01/20 02:26:04;;;;;;;5.25;0.30;;;4.40;99.90;;;;;;5057357;28;20036;-79
2022/01/20 02:28:30;;;;;;;4.45;0.25;;;4.30;99.90;;;;;;5090614;28;20059;-81
2022/01/20 02:30:55;;;;;;;4.88;0.40;;;4.30;99.90;;;;;;5045521;28;20063;-77
2022/01/20 02:33:23;;;;;;;5.97;0.20;;;4.30;99.90;;;;;;5063392;28;20798;-85
2022/01/20 02:35:52;;;;;;;2.53;0.20;;;4.30;99.90;;;;;;5072828;28;20054;-85
2022/01/20 02:38:29;;;;;;;4.85;0.15;;;4.30;99.90;;;;;;5056538;28;20136;-87
2022/01/20 02:46:23;;;;;;;3.63;0.10;;;4.30;99.90;;;;;;5073003;28;20083;-87
2022/01/20 02:48:49;;;;;;;5.28;0.10;;;4.30;99.90;;;;;;5073331;28;20091;-87
2022/01/20 02:51:14;;;;;;;4.75;0.20;;;4.40;99.90;;;;;;5073074;28;20048;-88
2022/01/20 02:53:40;;;;;;;8.02;0.30;;;4.30;99.90;;;;;;5073345;28;20445;-86
2022/01/20 02:56:06;;;;;;;9.27;0.20;;;4.40;99.90;;;;;;5057270;28;20834;-83
2022/01/20 02:58:32;;;;;;;5.70;0.20;;;4.40;99.90;;;;;;5072010;28;20139;-76
2022/01/20 03:00:58;;;;;;;6.15;0.32;;;4.40;99.90;;;;;;5072578;28;20044;-81
2022/01/20 03:03:24;;;;;;;6.32;0.65;;;4.40;99.90;;;;;;5072526;28;20048;-81
2022/01/20 03:05:50;;;;;;;8.05;0.40;;;4.40;99.90;;;;;;5056399;28;20044;-69
2022/01/20 03:08:15;;;;;;;12.70;0.60;;;4.40;99.90;;;;;;5073008;28;20058;-72
2022/01/20 03:10:41;;;;;;;4.10;0.40;;;4.40;99.90;;;;;;5071939;28;20841;-73
2022/01/20 03:13:07;;;;;;;7.07;0.77;;;4.30;99.90;;;;;;5049472;28;20040;-85
2022/01/20 03:15:35;;;;;;;8.82;0.85;;;4.30;99.90;;;;;;5051001;28;20451;-86
2022/01/20 03:18:03;;;;;;;14.25;0.70;;;4.30;99.90;;;;;;5071582;28;20481;-87
2022/01/20 03:20:29;;;;;;;12.65;0.60;;;4.30;99.90;;;;;;5050753;28;20050;-86
2022/01/20 03:22:54;;;;;;;9.05;0.55;;;4.20;99.90;;;;;;5073438;28;20455;-87
2022/01/20 03:25:20;;;;;;;6.38;0.55;;;4.20;99.90;;;;;;5072227;28;20393;-86
2022/01/20 03:27:45;;;;;;;6.53;0.50;;;4.10;99.90;;;;;;5072935;28;20108;-86
2022/01/20 03:30:11;;;;;;;9.80;0.63;;;4.10;99.90;;;;;;5072263;28;20062;-85
2022/01/20 03:32:37;;;;;;;6.10;0.52;;;4.10;99.90;;;;;;5072930;28;20075;-84
2022/01/20 03:35:06;;;;;;;9.38;0.60;;;4.10;99.90;;;;;;5072486;28;20082;-86
2022/01/20 03:37:33;;;;;;;7.57;0.90;;;4.10;99.90;;;;;;5072490;28;20127;-85
2022/01/20 03:39:58;;;;;;;11.68;0.75;;;4.10;99.90;;;;;;5071500;28;20058;-82
2022/01/20 03:42:24;;;;;;;8.70;0.73;;;4.10;99.90;;;;;;5072448;28;20044;-79
2022/01/20 03:44:52;;;;;;;9.00;0.82;;;4.10;99.90;;;;;;5072903;28;20040;-79
2022/01/20 03:47:18;;;;;;;10.13;1.13;;;4.00;99.90;;;;;;5071244;28;20113;-70
2022/01/20 03:50:06;;;;;;;16.55;1.52;;;4.00;99.90;;;;;;5072179;28;20084;-80
2022/01/20 03:52:33;;;;;;;14.98;1.55;;;4.00;99.90;;;;;;5055878;28;20048;-80
2022/01/20 03:55:03;;;;;;;18.48;1.85;;;4.00;99.90;;;;;;5078894;28;20041;-80
2022/01/20 03:57:29;;;;;;;15.15;1.85;;;3.90;99.90;;;;;;5062353;28;20545;-70
2022/01/20 03:59:54;;;;;;;15.45;2.05;;;4.00;99.90;;;;;;5054710;28;20048;-81
2022/01/20 04:02:20;;;;;;;15.43;1.98;;;4.00;99.90;;;;;;5072444;28;20063;-84
2022/01/20 04:04:46;;;;;;;16.20;2.05;;;4.00;99.90;;;;;;5040385;28;20090;-71
2022/01/20 04:07:11;;;;;;;23.15;1.88;;;4.00;99.90;;;;;;5068766;28;20043;-81
2022/01/20 04:09:37;;;;;;;15.55;1.80;;;4.00;99.90;;;;;;5072288;28;20036;-82
2022/01/20 04:12:03;;;;;;;23.35;2.40;;;4.00;99.90;;;;;;5072494;28;20037;-81
2022/01/20 04:14:31;;;;;;;16.50;2.40;;;4.00;99.90;;;;;;5071306;28;20044;-82
2022/01/20 04:19:26;;;;;;;23.05;2.38;;;4.00;99.90;;;;;;5072356;28;20489;-83
2022/01/20 04:21:52;;;;;;;14.52;1.50;;;4.00;99.60;;;;;;5071991;28;20036;-72
2022/01/20 04:24:17;;;;;;;16.00;1.50;;;4.10;99.10;;;;;;5044853;28;20437;-81
2022/01/20 04:26:45;;;;;;;11.70;1.65;;;4.00;99.10;;;;;;5057706;28;20127;-81
2022/01/20 04:29:11;;;;;;;15.38;1.90;;;4.10;98.40;;;;;;5074871;28;20079;-79
2022/01/20 04:31:38;;;;;;;15.60;1.70;;;4.00;98.80;;;;;;5075495;28;20480;-74
2022/01/20 04:34:05;;;;;;;11.82;1.27;;;4.00;98.10;;;;;;5072714;28;20107;-78
2022/01/20 04:36:35;;;;;;;9.60;1.33;;;4.00;97.50;;;;;;5055902;28;20472;-77
2022/01/20 04:39:02;;;;;;;13.88;1.65;;;4.00;97.50;;;;;;5074256;28;20048;-80
2022/01/20 04:41:31;;;;;;;13.65;1.20;;;4.00;97.70;;;;;;5074929;28;20043;-79
2022/01/20 04:43:59;;;;;;;14.50;1.85;;;4.00;97.60;;;;;;5074791;28;20048;-82
2022/01/20 04:46:37;;;;;;;10.60;1.80;;;4.00;97.30;;;;;;5075533;28;20123;-80
2022/01/20 04:57:21;;;;;;;10.32;1.55;;;3.90;96.80;;;;;;5074481;28;20051;-71
2022/01/20 04:59:49;;;;;;;12.02;1.10;;;3.90;96.40;;;;;;5055753;28;20051;-83
2022/01/20 05:02:15;;;;;;;8.35;1.13;;;3.90;96.30;;;;;;5058030;28;20039;-84
2022/01/20 05:04:41;;;;;;;8.98;1.10;;;3.80;96.20;;;;;;5057589;28;20052;-83
2022/01/20 05:07:08;;;;;;;12.32;0.90;;;3.80;96.10;;;;;;5074946;28;20044;-77
2022/01/20 05:09:35;;;;;;;9.27;1.13;;;3.70;95.20;;;;;;5074485;28;20492;-82
2022/01/20 05:12:11;;;;;;;8.35;0.82;;;3.70;95.70;;;;;;5074302;28;20044;-82
2022/01/20 05:14:36;;;;;;;7.32;0.50;;;3.80;95.40;;;;;;5075163;28;20044;-70
2022/01/20 05:17:03;;;;;;;10.18;0.75;;;3.70;96.10;;;;;;5073991;28;20040;-84
2022/01/20 05:19:30;;;;;;;9.70;0.73;;;3.60;96.70;;;;;;5075056;28;20392;-85
2022/01/20 05:21:56;;;;;;;10.57;0.68;;;3.50;97.10;;;;;;5074557;28;20039;-75
2022/01/20 05:24:23;;;;;;;9.07;0.80;;;3.40;97.60;;;;;;5074201;28;20094;-85
2022/01/20 05:26:50;;;;;;;7.32;0.57;;;3.30;97.70;;;;;;5074952;28;20477;-84
2022/01/20 05:29:17;;;;;;;4.47;0.63;;;3.30;97.80;;;;;;5092400;28;20047;-71
2022/01/20 05:31:44;;;;;;;11.00;0.85;;;3.20;98.00;;;;;;5057914;28;20124;-84
2022/01/20 05:34:10;;;;;;;7.07;0.77;;;3.10;97.80;;;;;;5057257;28;20043;-85
2022/01/20 05:36:35;;;;;;;8.27;0.70;;;3.00;97.90;;;;;;5056045;28;20514;-69
2022/01/20 05:39:01;;;;;;;6.50;0.45;;;2.90;97.80;;;;;;5074232;28;20036;-82
2022/01/20 05:41:27;;;;;;;8.13;0.68;;;2.80;98.00;;;;;;5074336;28;20040;-83
2022/01/20 05:43:52;;;;;;;9.70;0.80;;;2.80;98.00;;;;;;5056721;28;20044;-83
2022/01/20 05:46:22;;;;;;;9.80;0.77;;;2.70;98.10;;;;;;5074022;28;20082;-84
2022/01/20 05:48:49;;;;;;;10.55;0.77;;;2.70;98.20;;;;;;5074248;28;20060;-88
2022/01/20 05:51:15;;;;;;;12.15;0.82;;;2.70;98.30;;;;;;5058220;28;20395;-87
2022/01/20 05:53:41;;;;;;;10.25;0.68;;;2.80;98.20;;;;;;5073969;28;20047;-87
2022/01/20 05:56:07;;;;;;;9.05;1.08;;;2.80;98.30;;;;;;5074095;28;20515;-82
2022/01/20 05:58:37;;;;;;;5.57;1.10;;;2.80;98.30;;;;;;5056194;28;20044;-83
2022/01/20 06:01:05;;;;;;;13.95;1.20;;;2.80;98.40;;;;;;5073494;28;20051;-86
2022/01/20 06:03:36;;;;;;;12.43;1.17;;;2.90;98.40;;;;;;5073590;28;20036;-72
2022/01/20 06:06:06;;;;;;;8.80;0.90;;;2.90;98.40;;;;;;5055677;28;20044;-82
2022/01/20 06:08:33;;;;;;;11.77;1.05;;;2.90;98.30;;;;;;5072774;28;20055;-81
2022/01/20 06:10:59;;;;;;;12.48;1.23;;;3.00;98.40;;;;;;5073463;28;20074;-87
2022/01/20 06:13:26;;;;;;;14.32;1.00;;;3.00;98.40;;;;;;5043816;28;20141;-71
2022/01/20 06:15:51;;;;;;;13.35;1.15;;;3.00;98.50;;;;;;5052360;28;20047;-83
2022/01/20 06:18:18;;;;;;;9.20;0.90;;;3.10;98.10;;;;;;5073353;28;20040;-81
2022/01/20 06:20:43;;;;;;;12.35;0.90;;;3.00;97.90;;;;;;5072908;28;20036;-80
2022/01/20 06:23:09;;;;;;;7.60;0.75;;;3.00;97.60;;;;;;5073385;28;20051;-80
2022/01/20 06:25:35;;;;;;;15.20;1.05;;;3.00;97.70;;;;;;5073482;28;20058;-75
2022/01/20 06:28:02;;;;;;;14.50;1.30;;;2.90;97.80;;;;;;5052842;28;20493;-81
2022/01/20 06:30:29;;;;;;;10.63;1.67;;;2.80;98.10;;;;;;5068378;28;20468;-80
2022/01/20 06:32:55;;;;;;;10.20;0.77;;;2.80;98.30;;;;;;5056285;28;20530;-79
2022/01/20 06:35:21;;;;;;;11.60;0.88;;;2.90;98.50;;;;;;5072579;28;20044;-82
2022/01/20 06:37:47;;;;;;;7.95;0.57;;;2.90;98.70;;;;;;5055794;28;20048;-76
2022/01/20 06:40:13;;;;;;;8.00;0.88;;;2.90;98.90;;;;;;5056493;28;20043;-80
2022/01/20 06:42:39;;;;;;;10.38;0.82;;;2.90;99.10;;;;;;5072535;28;20450;-77
2022/01/20 06:45:06;;;;;;;9.88;1.17;;;2.80;99.30;;;;;;5091474;28;20036;-78
2022/01/20 06:47:32;;;;;;;11.93;0.90;;;2.70;99.30;;;;;;5068489;28;20064;-78
2022/01/20 06:49:58;;;;;;;8.40;0.70;;;2.70;99.60;;;;;;5052032;28;20441;-77
2022/01/20 06:52:24;;;;;;;7.00;0.60;;;2.60;99.60;;;;;;5069923;28;20456;-79
2022/01/20 06:54:50;;;;;;;6.55;0.60;;;2.60;99.80;;;;;;5068924;28;20080;-77
2022/01/20 06:57:15;;;;;;;9.20;0.88;;;2.60;99.80;;;;;;5049296;28;20044;-75
2022/01/20 06:59:41;;;;;;;4.82;0.50;;;2.60;99.90;;;;;;5069440;28;20040;-78
2022/01/20 07:02:06;;;;;;;6.38;0.73;;;2.60;99.90;;;;;;5069709;28;20060;-76
2022/01/20 07:04:32;;;;;;;8.30;0.70;;;2.50;99.90;;;;;;5068636;28;20508;-79
2022/01/20 07:06:59;;;;;;;11.43;0.60;;;2.50;99.90;;;;;;5052988;28;20040;-79
2022/01/20 07:09:24;;;;;;;8.75;0.60;;;2.50;99.90;;;;;;5069204;28;20108;-79
2022/01/20 07:11:50;;;;;;;12.57;1.02;;;2.40;99.90;;;;;;5069063;28;20123;-83
2022/01/20 07:14:16;;;;;;;9.90;0.75;;;2.30;99.90;;;;;;5068434;28;20037;-70
2022/01/20 07:16:42;;;;;;;10.82;0.95;;;2.30;99.90;;;;;;5068517;28;20473;-75
2022/01/20 07:19:07;;;;;;;14.18;1.25;;;2.20;99.90;;;;;;5069686;28;20040;-79
2022/01/20 07:21:33;;;;;;;13.25;1.60;;;2.30;99.90;;;;;;5043153;28;20410;-80
2022/01/20 07:23:59;;;;;;;8.40;1.05;;;2.20;99.90;;;;;;5060471;28;20075;-81
2022/01/20 07:26:24;;;;;;;9.25;0.77;;;2.30;99.90;;;;;;5052385;28;20068;-77
2022/01/20 07:28:50;;;;;;;10.57;0.73;;;2.30;99.90;;;;;;5066239;28;20036;-81
2022/01/20 07:31:20;;;;;;;10.98;0.77;;;2.40;99.90;;;;;;5064644;28;20128;-79
2022/01/20 07:33:46;;;;;;;10.88;1.52;;;2.50;99.90;;;;;;5067065;28;20170;-68
2022/01/20 07:36:12;;;;;;;7.60;0.75;;;2.60;99.90;;;;;;5052161;28;20045;-79
2022/01/20 07:38:37;;;;;;;8.93;0.88;;;2.60;99.90;;;;;;5068853;28;20048;-79
2022/01/20 07:41:03;;;;;;;6.82;0.50;;;2.70;99.90;;;;;;5061954;28;20048;-85
2022/01/20 07:43:28;;;;;;;8.68;0.68;;;2.70;99.90;;;;;;5066411;28;20048;-84
2022/01/20 07:45:54;;;;;;;9.07;0.88;;;2.70;99.90;;;;;;5063974;28;20028;-79
2022/01/20 07:48:20;;;;;;;6.82;0.70;;;2.70;99.90;;;;;;5068568;28;20059;-78
2022/01/20 07:50:46;;;;;;;9.07;0.50;;;2.70;99.90;;;;;;5064111;28;20401;-69
2022/01/20 07:53:11;;;;;;;13.13;1.00;;;2.80;99.90;;;;;;5036204;28;20048;-78
2022/01/20 07:55:38;;;;;;;16.65;0.90;;;2.80;99.90;;;;;;5068821;28;20131;-76
2022/01/20 07:58:05;;;;;;;11.68;1.15;;;2.80;99.90;;;;;;5068272;28;20056;-76
2022/01/20 08:00:31;;;;;;;16.15;1.80;;;2.80;99.90;;;;;;5061475;28;20087;-78
2022/01/20 08:02:57;;;;;;;15.07;1.20;;;2.80;99.70;;;;;;5062663;28;20045;-77
2022/01/20 08:05:22;;;;;;;14.23;1.00;;;2.70;99.70;;;;;;5070054;28;20036;-77
2022/01/20 08:07:48;;;;;;;9.90;0.90;;;2.70;99.70;;;;;;5053514;28;20043;-77
2022/01/20 08:10:14;;;;;;;15.13;1.75;;;2.60;99.70;;;;;;5067915;28;20148;-71
2022/01/20 08:12:40;;;;;;;9.18;1.30;;;2.60;99.80;;;;;;5059090;28;20040;-73
2022/01/20 08:15:09;;;;;;;11.88;1.58;;;2.70;99.80;;;;;;5054205;28;20451;-70
2022/01/20 08:17:36;;;;;;;9.85;1.00;;;2.70;99.70;;;;;;5072414;28;20071;-77
2022/01/20 08:20:03;;;;;;;17.67;1.20;;;2.80;99.80;;;;;;5070968;28;20511;-74
2022/01/20 08:22:33;;;;;;;10.52;1.10;;;2.90;99.70;;;;;;5070457;28;20048;-76
2022/01/20 08:25:00;;;;;;;11.50;1.20;;;2.90;99.60;;;;;;5069467;28;20124;-76
2022/01/20 08:27:25;;;;;;;10.68;1.08;;;2.90;99.50;;;;;;5055363;28;20088;-70
2022/01/20 08:29:51;;;;;;;11.25;1.65;;;2.90;99.30;;;;;;5072818;28;20606;-77
2022/01/20 08:32:16;;;;;;;10.70;0.75;;;2.80;99.20;;;;;;5044474;28;20048;-76
2022/01/20 08:34:42;;;;;;;12.43;1.30;;;2.80;99.30;;;;;;5068993;28;20058;-78
2022/01/20 08:37:08;;;;;;;13.95;1.38;;;2.70;99.20;;;;;;5072918;28;20036;-76
2022/01/20 08:42:03;;;;;;;13.00;1.60;;;2.70;99.30;;;;;;5072031;28;20537;-76
2022/01/20 08:44:29;;;;;;;9.10;1.20;;;2.70;99.30;;;;;;5072320;28;20058;-76
2022/01/20 08:46:57;;;;;;;14.00;1.13;;;2.80;99.40;;;;;;5072012;28;20044;-75
2022/01/20 08:49:23;;;;;;;12.05;1.25;;;2.80;99.40;;;;;;5075067;28;20051;-77
2022/01/20 08:51:49;;;;;;;10.15;0.93;;;2.80;99.30;;;;;;5075565;28;20036;-76
2022/01/20 08:54:15;;;;;;;9.77;1.00;;;2.80;99.10;;;;;;5075429;28;20393;-77
2022/01/20 08:56:41;;;;;;;18.88;1.30;;;2.80;99.10;;;;;;5075020;28;20040;-77
2022/01/20 08:59:10;;;;;;;13.80;1.20;;;2.80;99.10;;;;;;5075686;28;20180;-75
2022/01/20 09:01:38;;;;;;;12.15;1.20;;;2.90;99.10;;;;;;5059163;28;20044;-77
2022/01/20 09:04:05;;;;;;;12.50;1.20;;;2.90;99.00;;;;;;5093081;28;20044;-74
2022/01/20 09:06:30;;;;;;;11.93;1.13;;;2.90;98.50;;;;;;5075192;28;20169;-70
2022/01/20 09:08:56;;;;;;;11.40;1.52;;;3.00;99.00;;;;;;5058458;28;20131;-70
2022/01/20 09:11:24;;;;;;;12.27;1.40;;;3.00;98.40;;;;;;5073640;28;20063;-76
2022/01/20 09:16:37;;;;;;;12.88;1.08;;;3.20;98.00;;;;;;5074597;28;20496;-76
2022/01/20 09:19:03;;;;;;;10.80;1.70;;;3.20;97.90;;;;;;5074842;28;20423;-77
2022/01/20 09:21:29;;;;;;;16.52;1.10;;;3.40;97.60;;;;;;5058190;28;20391;-76
2022/01/20 09:23:56;;;;;;;14.70;1.48;;;3.40;97.60;;;;;;5073312;28;20048;-76
2022/01/20 09:26:22;;;;;;;9.90;0.98;;;3.60;97.20;;;;;;5073460;28;20058;-76
2022/01/20 09:28:48;;;;;;;7.25;1.05;;;3.60;96.50;;;;;;5074642;28;20044;-77
2022/01/20 09:31:14;;;;;;;9.88;1.48;;;3.80;96.30;;;;;;5073261;28;20412;-71
2022/01/20 09:33:40;;;;;;;9.20;0.50;;;3.90;96.10;;;;;;5074808;28;20044;-77
2022/01/20 09:36:12;;;;;;;9.00;1.50;;;4.00;95.80;;;;;;5073971;28;20048;-71
2022/01/20 09:38:38;;;;;;;13.77;1.37;;;4.20;95.30;;;;;;5070251;28;20074;-76
2022/01/20 09:41:04;;;;;;;11.27;0.77;;;4.40;95.60;;;;;;5072921;28;20286;-76
2022/01/20 09:43:31;;;;;;;11.00;1.08;;;4.40;95.60;;;;;;5092291;28;20048;-75
2022/01/20 09:45:57;;;;;;;9.32;0.80;;;4.30;95.40;;;;;;5073403;28;20098;-71
2022/01/20 09:48:24;;;;;;;9.82;1.02;;;4.00;95.30;;;;;;5073219;28;20088;-75
2022/01/20 09:50:50;;;;;;;13.52;1.13;;;4.00;95.70;;;;;;5071738;28;20079;-73
2022/01/20 09:53:16;;;;;;;7.10;0.80;;;3.90;95.70;;;;;;5072116;28;20492;-71
2022/01/20 09:55:42;;;;;;;10.48;1.25;;;3.80;95.80;;;;;;5071643;28;20086;-76
2022/01/20 09:58:09;;;;;;;12.00;1.05;;;3.80;96.30;;;;;;5045836;28;20048;-76
2022/01/20 10:00:35;;;;;;;13.88;1.35;;;3.80;96.60;;;;;;5048887;28;20051;-75
2022/01/20 10:03:09;;;;;;;8.80;1.10;;;3.80;96.80;;;;;;5055215;28;20127;-71
2022/01/20 10:05:43;;;;;;;9.25;0.70;;;3.80;96.90;;;;;;5080019;28;20259;-76
2022/01/20 10:08:16;;;;;;;12.73;0.82;;;3.90;97.10;;;;;;5074277;28;20063;-76
2022/01/20 10:10:47;;;;;;;12.48;1.33;;;4.00;97.00;;;;;;5073001;28;20036;-76
2022/01/20 10:13:15;;;;;;;12.77;1.00;;;4.00;97.10;;;;;;5073401;28;20059;-76
2022/01/20 10:15:42;;;;;;;10.27;0.95;;;4.00;97.00;;;;;;5056516;28;20059;-76
2022/01/20 10:18:11;;;;;;;9.73;1.08;;;4.10;97.10;;;;;;5054683;28;20587;-77
2022/01/20 10:20:50;;;;;;;12.20;0.88;;;4.30;96.40;;;;;;5073451;28;20039;-76
2022/01/20 10:23:35;;;;;;;8.85;0.90;;;4.30;96.10;;;;;;5073847;28;20059;-71
2022/01/20 10:26:09;;;;;;;11.30;1.38;;;4.40;96.40;;;;;;5056185;28;20086;-78
2022/01/20 10:28:50;;;;;;;9.43;0.80;;;4.60;96.40;;;;;;5074044;28;20039;-75
2022/01/20 10:31:19;;;;;;;9.32;0.95;;;4.70;95.60;;;;;;5073294;28;20043;-71
2022/01/20 10:33:46;;;;;;;6.03;0.68;;;4.70;95.40;;;;;;5056217;28;20047;-77
2022/01/20 10:36:13;;;;;;;10.25;0.90;;;4.70;95.40;;;;;;5056382;28;20170;-77
2022/01/20 10:38:50;;;;;;;8.23;1.05;;;4.70;94.30;;;;;;5043443;28;20044;-77
2022/01/20 10:41:26;;;;;;;9.85;0.90;;;4.80;93.80;;;;;;5053460;28;20123;-71
2022/01/20 10:44:01;;;;;;;13.13;1.00;;;4.90;93.70;;;;;;5067875;28;20089;-77
2022/01/20 10:46:27;;;;;;;10.85;1.30;;;5.00;93.90;;;;;;5056095;28;20036;-76
2022/01/20 10:49:00;;;;;;;8.20;0.93;;;5.20;93.90;;;;;;5072926;28;20545;-77
2022/01/20 10:51:26;;;;;;;7.75;0.57;;;5.30;92.70;;;;;;5073272;28;20381;-71
2022/01/20 10:54:04;;;;;;;8.63;0.95;;;5.40;91.90;;;;;;5055563;28;20076;-76
2022/01/20 10:56:30;;;;;;;13.20;1.02;;;5.40;92.30;;;;;;5056568;28;20055;-71
2022/01/20 10:59:06;;;;;;;11.32;1.55;;;5.30;92.10;;;;;;5072879;28;20162;-70
2022/01/20 11:01:32;;;;;;;10.55;0.88;;;5.30;92.70;;;;;;5055700;28;20051;-76
2022/01/20 11:03:58;;;;;;;13.98;1.70;;;5.10;93.00;;;;;;5072836;28;20048;-77
2022/01/20 11:06:24;;;;;;;11.95;1.10;;;5.10;93.50;;;;;;5072817;28;20424;-79
2022/01/20 11:08:51;;;;;;;12.75;1.52;;;5.00;93.90;;;;;;5056025;28;20085;-78
2022/01/20 11:11:17;;;;;;;9.75;1.10;;;5.00;94.20;;;;;;5072372;28;20062;-71
2022/01/20 11:13:43;;;;;;;10.52;0.80;;;5.00;94.40;;;;;;5072933;28;20507;-79
2022/01/20 11:16:09;;;;;;;10.60;1.23;;;4.90;94.60;;;;;;5072390;28;20059;-79
2022/01/20 11:18:37;;;;;;;12.80;1.52;;;4.80;95.20;;;;;;5072854;28;20052;-71
2022/01/20 11:21:02;;;;;;;9.48;1.00;;;4.80;95.70;;;;;;5072207;28;20500;-79
2022/01/20 11:23:42;;;;;;;8.95;0.90;;;4.70;96.20;;;;;;5073032;28;20036;-71
2022/01/20 11:26:08;;;;;;;11.93;1.55;;;4.50;96.10;;;;;;5050152;28;20068;-72
2022/01/20 11:28:34;;;;;;;8.30;0.85;;;4.30;96.20;;;;;;5056061;28;20115;-71
2022/01/20 11:31:08;;;;;;;11.45;1.23;;;4.20;96.40;;;;;;5069359;28;20466;-78
2022/01/20 11:33:42;;;;;;;10.90;1.10;;;4.10;96.50;;;;;;5054388;28;20044;-69
2022/01/20 11:36:28;;;;;;;13.45;0.98;;;4.00;96.80;;;;;;5075539;28;20040;-79
2022/01/20 11:39:00;;;;;;;12.30;0.95;;;4.00;97.20;;;;;;5065586;28;20047;-79
2022/01/20 11:41:34;;;;;;;8.77;0.60;;;4.20;97.20;;;;;;5059422;28;20387;-79
2022/01/20 11:44:08;;;;;;;11.18;0.90;;;4.20;97.00;;;;;;5066618;28;20044;-79
2022/01/20 11:46:44;;;;;;;6.97;1.15;;;4.20;96.90;;;;;;5075930;28;20085;-78
2022/01/20 11:49:11;;;;;;;8.80;1.10;;;4.30;96.40;;;;;;5052738;28;20057;-79
2022/01/20 11:51:56;;;;;;;8.25;1.00;;;4.40;95.50;;;;;;5066587;28;20055;-77
2022/01/20 11:54:27;;;;;;;11.02;1.05;;;4.60;95.50;;;;;;5073014;28;20127;-79
2022/01/20 11:57:06;;;;;;;13.10;0.80;;;4.70;95.10;;;;;;5068928;28;20051;-84
2022/01/20 11:59:55;;;;;;;12.98;1.05;;;5.00;94.30;;;;;;5072634;28;20053;-76
2022/01/20 12:02:37;;;;;;;14.05;1.02;;;5.30;94.10;;;;;;5071291;28;20429;-78
2022/01/20 12:05:30;;;;;;;9.23;0.73;;;5.20;94.20;;;;;;5070117;28;20129;-81
2022/01/20 12:08:12;;;;;;;10.43;0.57;;;5.00;95.20;;;;;;5072093;28;20048;-74
2022/01/20 12:10:39;;;;;;;6.68;0.50;;;4.70;95.20;;;;;;5055281;28;20040;-79
2022/01/20 12:13:13;;;;;;;6.07;0.22;;;4.50;95.60;;;;;;5072126;28;20109;-79
2022/01/20 12:15:57;;;;;;;8.30;0.40;;;4.40;95.90;;;;;;5070514;28;20056;-79
2022/01/20 12:18:23;;;;;;;5.25;0.38;;;4.40;96.30;;;;;;5071687;28;20041;-79
2022/01/20 12:20:49;;;;;;;4.60;0.30;;;4.50;96.10;;;;;;5070240;28;20041;-79
2022/01/20 12:23:16;;;;;;;10.13;0.95;;;4.50;96.00;;;;;;5072325;28;20048;-80
2022/01/20 12:25:42;;;;;;;10.40;0.93;;;4.60;95.50;;;;;;5069429;28;20105;-80
2022/01/20 12:28:14;;;;;;;11.15;0.82;;;4.60;95.60;;;;;;5071047;28;20041;-79
2022/01/20 12:30:49;;;;;;;8.20;0.90;;;4.70;95.20;;;;;;5079421;28;20044;-80
2022/01/20 12:33:17;;;;;;;14.98;1.48;;;4.80;95.50;;;;;;5065649;28;20151;-79
2022/01/20 12:35:49;;;;;;;8.95;1.10;;;4.80;95.40;;;;;;5071695;28;20059;-80
2022/01/20 12:38:34;;;;;;;9.15;0.85;;;5.00;95.60;;;;;;5071389;28;20127;-78
2022/01/20 12:41:06;;;;;;;10.88;0.93;;;5.20;95.80;;;;;;5071997;28;20397;-78
2022/01/20 12:43:59;;;;;;;12.10;1.17;;;5.40;95.10;;;;;;5072053;28;20052;-80
2022/01/20 12:46:30;;;;;;;10.45;1.20;;;5.70;94.90;;;;;;5069547;28;20082;-79
2022/01/20 12:49:05;;;;;;;10.88;0.70;;;5.90;94.40;;;;;;5071676;28;20131;-70
2022/01/20 12:51:44;;;;;;;12.15;0.95;;;6.10;94.30;;;;;;5071562;28;20135;-79
2022/01/20 12:54:13;;;;;;;14.93;0.88;;;6.10;93.70;;;;;;5071578;28;20464;-80
2022/01/20 12:56:45;;;;;;;8.88;1.13;;;6.00;93.30;;;;;;5072351;28;20040;-79
2022/01/20 12:59:16;;;;;;;12.65;0.77;;;5.90;93.50;;;;;;5071427;28;20036;-78
2022/01/20 13:01:44;;;;;;;11.60;1.02;;;5.90;93.80;;;;;;5070751;28;20090;-80
2022/01/20 13:04:13;;;;;;;8.50;0.90;;;5.90;93.70;;;;;;5071327;28;20040;-80
2022/01/20 13:06:56;;;;;;;9.25;0.98;;;5.80;93.30;;;;;;5071192;28;20041;-82
2022/01/20 13:09:24;;;;;;;;;;;5.60;93.10;;;;;;5072010;28;20059;-81
2022/01/20 13:11:57;;;;;;;12.52;1.15;;;5.40;93.60;;;;;;5071264;28;19924;-71
2022/01/20 13:14:44;;;;;;;12.30;1.50;;;5.30;94.10;;;;;;5051487;28;20049;-80
2022/01/20 13:17:12;;;;;;;10.35;0.98;;;5.20;94.30;;;;;;5071236;28;20076;-77
2022/01/20 13:19:39;;;;;;;15.18;1.08;;;5.10;94.40;;;;;;5071931;28;20504;-77
2022/01/20 13:22:07;;;;;;;9.30;0.95;;;5.00;94.10;;;;;;5071251;28;20405;-79
2022/01/20 13:24:34;;;;;;;11.68;0.70;;;4.90;94.30;;;;;;5053660;28;20124;-79
2022/01/20 13:27:01;;;;;;;5.93;1.00;;;5.00;95.10;;;;;;5071093;28;20128;-81
2022/01/20 13:29:43;;;;;;;13.93;1.15;;;5.80;95.00;;;;;;5068163;28;20408;-81
2022/01/20 13:32:09;;;;;;;9.43;1.00;;;6.60;93.90;;;;;;5050783;28;20488;-80
2022/01/20 13:34:35;;;;;;;5.10;0.55;;;7.50;92.70;;;;;;5043136;28;20052;-80
2022/01/20 13:37:02;;;;;;;9.40;1.13;;;8.10;91.00;;;;;;5055753;28;20048;-80
2022/01/20 13:39:33;;;;;;;6.05;0.73;;;8.50;90.40;;;;;;5068161;28;20062;-81
2022/01/20 13:45:12;;;;;;;10.43;0.95;;;8.70;84.60;;;;;;5059900;28;20095;-80
2022/01/20 13:48:03;;;;;;;9.27;1.23;;;8.30;84.50;;;;;;5052212;28;20049;-81
2022/01/20 13:50:33;;;;;;;9.20;0.98;;;7.80;86.80;;;;;;5068216;28;20049;-79
2022/01/20 13:53:20;;;;;;;9.40;1.10;;;7.00;87.00;;;;;;5053916;28;20697;-79
2022/01/20 13:55:47;;;;;;;9.63;1.05;;;6.50;88.90;;;;;;5069994;28;20048;-71
2022/01/20 13:58:28;;;;;;;6.32;0.75;;;6.30;90.40;;;;;;5069201;28;20045;-78
2022/01/20 14:00:56;;;;;;;9.25;0.80;;;6.20;90.60;;;;;;5064311;28;20040;-78
2022/01/20 14:03:23;;;;;;;7.20;0.93;;;6.00;90.70;;;;;;5053055;28;20149;-76
2022/01/20 14:05:50;;;;;;;8.63;0.65;;;5.90;90.90;;;;;;5070622;28;20621;-77
2022/01/20 14:08:16;;;;;;;14.27;1.35;;;5.70;91.20;;;;;;5070600;28;20395;-79
2022/01/20 14:10:42;;;;;;;8.05;0.82;;;5.50;91.70;;;;;;5068748;28;20145;-78